sensor_id;sensor_type;location;lat;lon;timestamp;temperature;humidity
20139;DHT22;10230;51.502;10.800;2023-05-19T00:01:34;11.90;99.90
20139;DHT22;10230;51.502;10.800;2023-05-19T00:04:02;11.90;99.90
20139;DHT22;10230;51.502;10.800;2023-05-19T00:06:31;11.90;99.90
20139;DHT22;10230;51.502;10.800;2023-05-19T00:08:58;11.90;99.90
20139;DHT22;10230;51.502;10.800;2023-05-19T00:11:24;11.90;99.90
20139;DHT22;10230;51.502;10.800;2023-05-19T00:13:56;11.90;99.90
20139;DHT22;10230;51.502;10.800;2023-05-19T00:16:23;11.90;99.90
20139;DHT22;10230;51.502;10.800;2023-05-19T00:18:49;11.90;99.90
20139;DHT22;10230;51.502;10.800;2023-05-19T00:21:16;11.90;99.90
20139;DHT22;10230;51.502;10.800;2023-05-19T00:23:42;11.90;99.90
20139;DHT22;10230;51.502;10.800;2023-05-19T00:26:08;11.90;99.90
20139;DHT22;10230;51.502;10.800;2023-05-19T00:28:34;11.80;99.90
20139;DHT22;10230;51.502;10.800;2023-05-19T00:30:59;11.80;99.90
20139;DHT22;10230;51.502;10.800;2023-05-19T00:33:26;11.70;99.90
20139;DHT22;10230;51.502;10.800;2023-05-19T00:35:52;11.70;99.90
20139;DHT22;10230;51.502;10.800;2023-05-19T00:38:18;11.70;99.90
20139;DHT22;10230;51.502;10.800;2023-05-19T00:40:44;11.70;99.90
20139;DHT22;10230;51.502;10.800;2023-05-19T00:43:10;11.70;99.90
20139;DHT22;10230;51.502;10.800;2023-05-19T00:45:36;11.70;99.90
20139;DHT22;10230;51.502;10.800;2023-05-19T00:48:01;11.70;99.90
20139;DHT22;10230;51.502;10.800;2023-05-19T00:50:27;11.60;99.90
20139;DHT22;10230;51.502;10.800;2023-05-19T00:52:56;11.60;99.90
20139;DHT22;10230;51.502;10.800;2023-05-19T00:55:25;11.60;99.90
20139;DHT22;10230;51.502;10.800;2023-05-19T00:57:52;11.50;99.90
20139;DHT22;10230;51.502;10.800;2023-05-19T01:00:18;11.50;99.90
20139;DHT22;10230;51.502;10.800;2023-05-19T01:02:44;11.50;99.90
20139;DHT22;10230;51.502;10.800;2023-05-19T01:05:11;11.50;99.90
20139;DHT22;10230;51.502;10.800;2023-05-19T01:07:37;11.50;99.90
20139;DHT22;10230;51.502;10.800;2023-05-19T01:10:03;11.50;99.90
20139;DHT22;10230;51.502;10.800;2023-05-19T01:12:29;11.50;99.90
20139;DHT22;10230;51.502;10.800;2023-05-19T01:14:56;11.50;99.90
20139;DHT22;10230;51.502;10.800;2023-05-19T01:20:31;11.50;99.90
20139;DHT22;10230;51.502;10.800;2023-05-19T01:30:40;11.50;99.90
20139;DHT22;10230;51.502;10.800;2023-05-19T01:33:08;11.50;99.90
20139;DHT22;10230;51.502;10.800;2023-05-19T01:35:36;11.50;99.90
20139;DHT22;10230;51.502;10.800;2023-05-19T01:38:03;11.40;99.90
20139;DHT22;10230;51.502;10.800;2023-05-19T01:40:29;11.40;99.90
20139;DHT22;10230;51.502;10.800;2023-05-19T01:42:58;11.40;99.90
20139;DHT22;10230;51.502;10.800;2023-05-19T01:45:26;11.40;99.90
20139;DHT22;10230;51.502;10.800;2023-05-19T01:47:55;11.40;99.90
20139;DHT22;10230;51.502;10.800;2023-05-19T01:50:21;11.40;99.90
20139;DHT22;10230;51.502;10.800;2023-05-19T01:52:46;11.40;99.90
20139;DHT22;10230;51.502;10.800;2023-05-19T01:55:12;11.40;99.90
20139;DHT22;10230;51.502;10.800;2023-05-19T02:03:08;11.40;99.90
20139;DHT22;10230;51.502;10.800;2023-05-19T02:06:02;11.40;99.90
20139;DHT22;10230;51.502;10.800;2023-05-19T02:11:16;11.40;99.90
20139;DHT22;10230;51.502;10.800;2023-05-19T02:13:44;11.40;99.90
20139;DHT22;10230;51.502;10.800;2023-05-19T02:16:14;11.40;99.90
20139;DHT22;10230;51.502;10.800;2023-05-19T02:18:40;11.40;99.90
20139;DHT22;10230;51.502;10.800;2023-05-19T02:21:10;11.40;99.90
20139;DHT22;10230;51.502;10.800;2023-05-19T02:23:38;11.40;99.90
20139;DHT22;10230;51.502;10.800;2023-05-19T02:26:05;11.40;99.90
20139;DHT22;10230;51.502;10.800;2023-05-19T02:28:33;11.40;99.90
20139;DHT22;10230;51.502;10.800;2023-05-19T02:30:59;11.40;99.90
20139;DHT22;10230;51.502;10.800;2023-05-19T02:33:25;11.40;99.90
20139;DHT22;10230;51.502;10.800;2023-05-19T02:35:52;11.40;99.90
20139;DHT22;10230;51.502;10.800;2023-05-19T02:38:18;11.40;99.90
20139;DHT22;10230;51.502;10.800;2023-05-19T02:40:43;11.30;99.90
20139;DHT22;10230;51.502;10.800;2023-05-19T02:43:09;11.30;99.90
20139;DHT22;10230;51.502;10.800;2023-05-19T02:45:34;11.30;99.90
20139;DHT22;10230;51.502;10.800;2023-05-19T02:48:00;11.30;99.90
20139;DHT22;10230;51.502;10.800;2023-05-19T02:50:26;11.20;99.90
20139;DHT22;10230;51.502;10.800;2023-05-19T02:52:52;11.20;99.90
20139;DHT22;10230;51.502;10.800;2023-05-19T02:55:18;11.10;99.90
20139;DHT22;10230;51.502;10.800;2023-05-19T02:57:44;11.20;99.90
20139;DHT22;10230;51.502;10.800;2023-05-19T03:00:10;11.10;99.90
20139;DHT22;10230;51.502;10.800;2023-05-19T03:02:36;11.10;99.90
20139;DHT22;10230;51.502;10.800;2023-05-19T03:05:02;11.10;99.90
20139;DHT22;10230;51.502;10.800;2023-05-19T03:07:28;11.00;99.90
20139;DHT22;10230;51.502;10.800;2023-05-19T03:09:53;11.00;99.90
20139;DHT22;10230;51.502;10.800;2023-05-19T03:12:19;11.00;99.90
20139;DHT22;10230;51.502;10.800;2023-05-19T03:14:46;11.00;99.90
20139;DHT22;10230;51.502;10.800;2023-05-19T03:17:12;11.00;99.90
20139;DHT22;10230;51.502;10.800;2023-05-19T03:19:37;11.00;99.90
20139;DHT22;10230;51.502;10.800;2023-05-19T03:22:03;11.00;99.90
20139;DHT22;10230;51.502;10.800;2023-05-19T03:24:29;11.00;99.90
20139;DHT22;10230;51.502;10.800;2023-05-19T03:26:55;10.90;99.90
20139;DHT22;10230;51.502;10.800;2023-05-19T03:29:20;10.80;99.90
20139;DHT22;10230;51.502;10.800;2023-05-19T03:31:46;10.80;99.90
20139;DHT22;10230;51.502;10.800;2023-05-19T03:34:12;10.70;99.90
20139;DHT22;10230;51.502;10.800;2023-05-19T03:36:37;10.70;99.90
20139;DHT22;10230;51.502;10.800;2023-05-19T03:39:04;10.70;99.90
20139;DHT22;10230;51.502;10.800;2023-05-19T03:41:30;10.60;99.90
20139;DHT22;10230;51.502;10.800;2023-05-19T03:43:56;10.60;99.90
20139;DHT22;10230;51.502;10.800;2023-05-19T03:46:22;10.60;99.90
20139;DHT22;10230;51.502;10.800;2023-05-19T03:48:47;10.60;99.90
20139;DHT22;10230;51.502;10.800;2023-05-19T03:51:13;10.60;99.90
20139;DHT22;10230;51.502;10.800;2023-05-19T03:53:39;10.60;99.90
20139;DHT22;10230;51.502;10.800;2023-05-19T03:56:05;10.60;99.90
20139;DHT22;10230;51.502;10.800;2023-05-19T03:58:32;10.50;99.90
20139;DHT22;10230;51.502;10.800;2023-05-19T04:00:58;10.50;99.90
20139;DHT22;10230;51.502;10.800;2023-05-19T04:03:23;10.50;99.90
20139;DHT22;10230;51.502;10.800;2023-05-19T04:05:51;10.60;99.90
20139;DHT22;10230;51.502;10.800;2023-05-19T04:08:16;10.60;99.90
20139;DHT22;10230;51.502;10.800;2023-05-19T04:10:42;10.70;99.90
20139;DHT22;10230;51.502;10.800;2023-05-19T04:13:08;10.70;99.90
20139;DHT22;10230;51.502;10.800;2023-05-19T04:15:33;10.70;99.90
20139;DHT22;10230;51.502;10.800;2023-05-19T04:17:59;10.80;99.90
20139;DHT22;10230;51.502;10.800;2023-05-19T04:20:25;10.90;99.90
20139;DHT22;10230;51.502;10.800;2023-05-19T04:22:50;10.90;99.90
20139;DHT22;10230;51.502;10.800;2023-05-19T04:25:16;11.00;99.90
20139;DHT22;10230;51.502;10.800;2023-05-19T04:27:44;11.00;99.90
20139;DHT22;10230;51.502;10.800;2023-05-19T04:30:10;11.10;99.90
20139;DHT22;10230;51.502;10.800;2023-05-19T04:32:36;11.10;99.90
20139;DHT22;10230;51.502;10.800;2023-05-19T04:35:04;11.20;99.90
20139;DHT22;10230;51.502;10.800;2023-05-19T04:37:30;11.30;99.90
20139;DHT22;10230;51.502;10.800;2023-05-19T04:39:55;11.40;99.90
20139;DHT22;10230;51.502;10.800;2023-05-19T04:42:21;11.40;99.90
20139;DHT22;10230;51.502;10.800;2023-05-19T04:44:50;11.50;99.90
20139;DHT22;10230;51.502;10.800;2023-05-19T04:47:16;11.50;99.90
20139;DHT22;10230;51.502;10.800;2023-05-19T04:49:42;11.60;99.90
20139;DHT22;10230;51.502;10.800;2023-05-19T04:52:09;11.60;99.90
20139;DHT22;10230;51.502;10.800;2023-05-19T04:54:38;11.70;99.90
20139;DHT22;10230;51.502;10.800;2023-05-19T05:45:55;12.50;99.90
20139;DHT22;10230;51.502;10.800;2023-05-19T05:48:21;12.60;99.90
20139;DHT22;10230;51.502;10.800;2023-05-19T05:50:47;12.60;99.90
20139;DHT22;10230;51.502;10.800;2023-05-19T05:53:17;12.70;99.90
20139;DHT22;10230;51.502;10.800;2023-05-19T05:55:47;12.80;99.90
20139;DHT22;10230;51.502;10.800;2023-05-19T05:58:13;12.90;99.90
20139;DHT22;10230;51.502;10.800;2023-05-19T06:00:40;13.10;99.90
20139;DHT22;10230;51.502;10.800;2023-05-19T06:03:10;13.20;99.90
20139;DHT22;10230;51.502;10.800;2023-05-19T07:06:46;17.80;99.90
20139;DHT22;10230;51.502;10.800;2023-05-19T07:09:12;17.90;99.90
20139;DHT22;10230;51.502;10.800;2023-05-19T07:11:38;17.90;99.90
20139;DHT22;10230;51.502;10.800;2023-05-19T07:14:03;18.00;99.90
20139;DHT22;10230;51.502;10.800;2023-05-19T07:16:29;18.00;99.90
20139;DHT22;10230;51.502;10.800;2023-05-19T07:50:35;20.80;99.90
20139;DHT22;10230;51.502;10.800;2023-05-19T07:53:01;20.90;99.90
20139;DHT22;10230;51.502;10.800;2023-05-19T07:55:27;20.90;99.90
20139;DHT22;10230;51.502;10.800;2023-05-19T07:57:52;20.90;99.90
20139;DHT22;10230;51.502;10.800;2023-05-19T08:00:18;20.80;99.90
20139;DHT22;10230;51.502;10.800;2023-05-19T08:02:44;20.80;99.90
20139;DHT22;10230;51.502;10.800;2023-05-19T08:22:13;29.30;61.50
20139;DHT22;10230;51.502;10.800;2023-05-19T08:27:07;32.30;82.70
20139;DHT22;10230;51.502;10.800;2023-05-19T08:29:33;32.90;84.00
20139;DHT22;10230;51.502;10.800;2023-05-19T08:31:59;33.00;81.50
20139;DHT22;10230;51.502;10.800;2023-05-19T08:34:26;32.60;79.60
20139;DHT22;10230;51.502;10.800;2023-05-19T08:36:51;32.40;82.50
20139;DHT22;10230;51.502;10.800;2023-05-19T08:41:48;32.00;93.20
20139;DHT22;10230;51.502;10.800;2023-05-19T08:49:10;26.90;52.30
20139;DHT22;10230;51.502;10.800;2023-05-19T08:51:53;26.50;54.20
20139;DHT22;10230;51.502;10.800;2023-05-19T08:54:24;24.50;55.90
20139;DHT22;10230;51.502;10.800;2023-05-19T08:56:54;24.20;57.10
20139;DHT22;10230;51.502;10.800;2023-05-19T09:01:46;23.40;57.50
20139;DHT22;10230;51.502;10.800;2023-05-19T09:04:13;23.10;59.20
20139;DHT22;10230;51.502;10.800;2023-05-19T09:06:40;22.60;60.40
20139;DHT22;10230;51.502;10.800;2023-05-19T09:09:06;22.90;60.50
20139;DHT22;10230;51.502;10.800;2023-05-19T09:11:33;24.00;59.10
20139;DHT22;10230;51.502;10.800;2023-05-19T09:14:00;25.50;92.10
20139;DHT22;10230;51.502;10.800;2023-05-19T09:21:28;30.10;55.50
20139;DHT22;10230;51.502;10.800;2023-05-19T09:24:05;30.80;48.00
20139;DHT22;10230;51.502;10.800;2023-05-19T09:26:37;31.50;46.70
20139;DHT22;10230;51.502;10.800;2023-05-19T09:29:11;31.10;45.70
20139;DHT22;10230;51.502;10.800;2023-05-19T09:31:37;30.10;47.30
20139;DHT22;10230;51.502;10.800;2023-05-19T09:34:03;29.40;47.40
20139;DHT22;10230;51.502;10.800;2023-05-19T10:11:01;26.40;95.30
20139;DHT22;10230;51.502;10.800;2023-05-19T10:13:28;26.40;66.30
20139;DHT22;10230;51.502;10.800;2023-05-19T10:15:54;27.00;56.40
20139;DHT22;10230;51.502;10.800;2023-05-19T10:30:41;30.60;76.90
20139;DHT22;10230;51.502;10.800;2023-05-19T10:33:12;31.90;71.70
20139;DHT22;10230;51.502;10.800;2023-05-19T10:46:16;37.40;34.00
20139;DHT22;10230;51.502;10.800;2023-05-19T10:48:45;38.10;33.70
20139;DHT22;10230;51.502;10.800;2023-05-19T10:51:11;39.90;30.30
20139;DHT22;10230;51.502;10.800;2023-05-19T11:26:01;37.60;71.40
20139;DHT22;10230;51.502;10.800;2023-05-19T11:58:02;35.10;76.40
20139;DHT22;10230;51.502;10.800;2023-05-19T12:00:33;33.80;32.70
20139;DHT22;10230;51.502;10.800;2023-05-19T12:05:27;32.20;78.40
20139;DHT22;10230;51.502;10.800;2023-05-19T12:07:53;31.00;35.20
20139;DHT22;10230;51.502;10.800;2023-05-19T12:17:59;28.80;69.70
20139;DHT22;10230;51.502;10.800;2023-05-19T12:20:26;28.40;74.20
20139;DHT22;10230;51.502;10.800;2023-05-19T12:25:18;27.60;72.50
20139;DHT22;10230;51.502;10.800;2023-05-19T12:27:44;27.70;74.00
20139;DHT22;10230;51.502;10.800;2023-05-19T12:30:10;27.40;73.00
20139;DHT22;10230;51.502;10.800;2023-05-19T12:32:39;27.30;75.10
20139;DHT22;10230;51.502;10.800;2023-05-19T12:35:05;27.30;75.00
20139;DHT22;10230;51.502;10.800;2023-05-19T12:37:32;27.10;66.70
20139;DHT22;10230;51.502;10.800;2023-05-19T16:15:01;20.90;81.20
